createdAt,value
2017-12-03T00:00:57.499Z,56.87
2017-12-03T00:03:26.609Z,58.13
2017-12-03T00:05:54.931Z,54.20
2017-12-03T00:08:23.305Z,59.33
2017-12-03T00:10:52.338Z,65.37
2017-12-03T00:13:21.418Z,66.40
2017-12-03T00:15:49.794Z,64.07
2017-12-03T00:18:18.115Z,51.93
2017-12-03T00:20:46.435Z,64.93
2017-12-03T00:23:14.778Z,60.77
2017-12-03T00:25:43.095Z,61.20
2017-12-03T00:28:11.442Z,54.73
2017-12-03T00:30:39.760Z,67.17
2017-12-03T00:33:08.112Z,58.70
2017-12-03T00:35:36.447Z,77.93
2017-12-03T00:38:04.767Z,72.27
2017-12-03T00:40:33.115Z,75.00
2017-12-03T00:43:01.428Z,67.53
2017-12-03T00:45:30.516Z,77.10
2017-12-03T00:47:58.883Z,66.83
2017-12-03T00:50:27.203Z,64.53
2017-12-03T00:52:55.520Z,66.23
2017-12-03T00:55:23.882Z,74.73
2017-12-03T00:57:52.216Z,72.60
2017-12-03T01:00:20.563Z,71.20
2017-12-03T01:02:48.888Z,73.07
2017-12-03T01:05:17.211Z,78.50
2017-12-03T01:07:45.552Z,68.50
2017-12-03T01:10:14.645Z,75.70
2017-12-03T01:12:43.756Z,66.13
2017-12-03T01:15:12.082Z,69.90
2017-12-03T01:17:40.456Z,77.23
2017-12-03T01:20:08.779Z,78.03
2017-12-03T01:22:37.913Z,77.93
2017-12-03T01:25:06.295Z,63.60
2017-12-03T01:27:34.629Z,70.13
2017-12-03T01:30:03.723Z,69.00
2017-12-03T01:32:32.091Z,67.77
2017-12-03T01:35:00.417Z,68.07
2017-12-03T01:37:28.756Z,64.20
2017-12-03T01:39:57.871Z,64.37
2017-12-03T01:42:26.989Z,69.70
2017-12-03T01:44:55.340Z,64.70
2017-12-03T01:47:24.454Z,64.10
2017-12-03T01:49:52.797Z,63.30
2017-12-03T01:52:21.124Z,61.37
2017-12-03T01:54:49.455Z,61.67
2017-12-03T01:57:18.580Z,58.90
2017-12-03T01:59:46.904Z,55.23
2017-12-03T02:02:15.228Z,59.80
2017-12-03T02:04:43.605Z,59.03
2017-12-03T02:07:11.935Z,51.87
2017-12-03T02:09:40.279Z,57.37
2017-12-03T02:12:08.600Z,51.10
2017-12-03T02:14:36.947Z,49.10
2017-12-03T02:17:05.300Z,47.23
2017-12-03T02:19:33.643Z,46.87
2017-12-03T02:22:01.963Z,49.40
2017-12-03T02:24:30.330Z,48.53
2017-12-03T02:26:58.667Z,53.00
2017-12-03T02:29:26.991Z,50.60
2017-12-03T02:31:55.343Z,51.47
2017-12-03T02:34:24.460Z,52.57
2017-12-03T02:36:52.830Z,50.87
2017-12-03T02:39:21.917Z,55.23
2017-12-03T02:41:51.026Z,48.63
2017-12-03T02:44:20.116Z,47.13
2017-12-03T02:46:48.475Z,44.90
2017-12-03T02:49:16.800Z,50.87
2017-12-03T02:51:45.139Z,48.87
2017-12-03T02:54:14.251Z,46.40
2017-12-03T02:56:43.364Z,42.93
2017-12-03T02:59:11.725Z,43.90
2017-12-03T03:01:40.073Z,47.70
2017-12-03T03:04:08.427Z,43.50
2017-12-03T03:06:37.519Z,45.37
2017-12-03T03:09:05.855Z,41.13
2017-12-03T03:11:34.204Z,37.80
2017-12-03T03:14:02.536Z,35.73
2017-12-03T03:16:30.889Z,37.87
2017-12-03T03:18:59.212Z,38.47
2017-12-03T03:21:27.550Z,35.97
2017-12-03T03:23:55.876Z,35.57
2017-12-03T03:26:24.242Z,38.50
2017-12-03T03:28:52.565Z,34.40
2017-12-03T03:31:21.714Z,32.93
2017-12-03T03:33:50.045Z,34.33
2017-12-03T03:36:19.144Z,34.53
2017-12-03T03:38:48.264Z,34.20
2017-12-03T03:41:16.595Z,34.80
2017-12-03T03:43:44.924Z,30.43
2017-12-03T03:46:13.267Z,33.70
2017-12-03T03:48:42.365Z,35.20
2017-12-03T03:51:11.475Z,29.63
2017-12-03T03:53:39.799Z,33.33
2017-12-03T03:56:08.158Z,29.90
2017-12-03T03:58:36.484Z,30.30
2017-12-03T04:01:05.573Z,29.77
2017-12-03T04:03:33.933Z,28.03
2017-12-03T04:06:02.263Z,29.00
2017-12-03T04:08:30.583Z,28.47
2017-12-03T04:10:58.929Z,26.47
2017-12-03T04:13:27.272Z,29.13
2017-12-03T04:15:56.395Z,27.50
2017-12-03T04:18:24.721Z,31.33
2017-12-03T04:20:53.045Z,26.67
2017-12-03T04:23:21.441Z,25.90
2017-12-03T04:25:49.800Z,28.07
2017-12-03T04:28:18.124Z,32.93
2017-12-03T04:30:46.455Z,29.70
2017-12-03T04:33:14.804Z,28.67
2017-12-03T04:35:43.132Z,29.87
2017-12-03T04:38:11.464Z,23.27
2017-12-03T04:40:39.826Z,27.97
2017-12-03T04:43:08.152Z,31.03
2017-12-03T04:45:36.481Z,31.73
2017-12-03T04:48:04.856Z,31.50
2017-12-03T04:50:33.181Z,30.43
2017-12-03T04:53:01.529Z,33.60
2017-12-03T04:55:30.623Z,29.87
2017-12-03T04:57:59.188Z,31.40
2017-12-03T05:00:27.526Z,31.27
2017-12-03T05:02:55.867Z,30.03
2017-12-03T05:05:24.979Z,32.17
2017-12-03T05:07:54.091Z,34.57
2017-12-03T05:10:22.414Z,32.30
2017-12-03T05:12:50.742Z,35.60
2017-12-03T05:15:19.091Z,37.03
2017-12-03T05:17:47.424Z,35.03
2017-12-03T05:20:15.754Z,33.23
2017-12-03T05:22:44.860Z,35.10
2017-12-03T05:25:13.980Z,31.30
2017-12-03T05:27:42.347Z,31.50
2017-12-03T05:30:10.685Z,34.83
2017-12-03T05:32:39.019Z,33.57
2017-12-03T05:35:07.363Z,39.17
2017-12-03T05:37:36.444Z,34.67
2017-12-03T05:40:04.788Z,40.00
2017-12-03T05:42:33.119Z,36.77
2017-12-03T05:45:01.481Z,32.50
2017-12-03T05:47:29.811Z,39.37
2017-12-03T05:49:58.126Z,37.80
2017-12-03T05:52:26.465Z,33.20
2017-12-03T05:54:54.775Z,38.77
2017-12-03T05:57:23.116Z,41.23
2017-12-03T05:59:51.460Z,33.67
2017-12-03T06:02:20.567Z,36.07
2017-12-03T06:04:48.919Z,34.90
2017-12-03T06:07:18.012Z,38.50
2017-12-03T06:09:47.106Z,42.10
2017-12-03T06:12:15.451Z,46.73
2017-12-03T06:14:43.771Z,35.70
2017-12-03T06:17:12.875Z,43.83
2017-12-03T06:19:41.992Z,42.53
2017-12-03T06:22:10.332Z,42.20
2017-12-03T06:24:39.445Z,38.70
2017-12-03T06:27:08.544Z,40.87
2017-12-03T06:29:36.900Z,37.67
2017-12-03T06:32:05.220Z,42.00
2017-12-03T06:34:33.536Z,39.57
2017-12-03T06:37:01.929Z,38.93
2017-12-03T06:39:30.246Z,40.17
2017-12-03T06:41:58.569Z,35.73
2017-12-03T06:44:26.914Z,44.10
2017-12-03T06:46:55.263Z,33.70
2017-12-03T06:49:24.348Z,37.10
2017-12-03T06:51:53.441Z,40.10
2017-12-03T06:54:22.567Z,41.13
2017-12-03T06:56:50.882Z,33.53
2017-12-03T06:59:19.196Z,38.67
2017-12-03T07:01:48.310Z,35.20
2017-12-03T07:04:16.638Z,38.60
2017-12-03T07:06:44.952Z,39.57
2017-12-03T07:09:14.065Z,36.90
2017-12-03T07:11:42.422Z,34.77
2017-12-03T07:14:10.740Z,38.57
2017-12-03T07:16:39.088Z,35.70
2017-12-03T07:19:07.439Z,36.50
2017-12-03T07:21:35.759Z,34.53
2017-12-03T07:24:04.087Z,32.50
2017-12-03T07:26:32.429Z,36.47
2017-12-03T07:29:00.751Z,33.87
2017-12-03T07:31:29.119Z,36.47
2017-12-03T07:33:57.431Z,33.37
2017-12-03T07:36:25.758Z,31.17
2017-12-03T07:38:54.876Z,32.60
2017-12-03T07:41:23.192Z,31.13
2017-12-03T07:43:51.512Z,35.93
2017-12-03T07:46:19.873Z,32.77
2017-12-03T07:48:48.193Z,30.00
2017-12-03T07:51:16.580Z,28.70
2017-12-03T07:53:45.696Z,31.87
2017-12-03T07:56:14.076Z,33.23
2017-12-03T07:58:42.410Z,33.13
2017-12-03T08:01:10.743Z,29.00
2017-12-03T08:03:39.106Z,29.10
2017-12-03T08:06:07.440Z,31.53
2017-12-03T08:08:35.754Z,25.10
2017-12-03T08:11:04.875Z,25.30
2017-12-03T08:13:33.260Z,26.73
2017-12-03T08:16:01.590Z,24.97
2017-12-03T08:18:30.818Z,28.37
2017-12-03T08:20:59.139Z,27.47
2017-12-03T08:23:27.467Z,27.60
2017-12-03T08:25:55.813Z,27.13
2017-12-03T08:28:24.159Z,36.33
2017-12-03T08:30:52.500Z,25.47
2017-12-03T08:33:20.826Z,26.80
2017-12-03T08:35:49.168Z,26.97
2017-12-03T08:38:17.527Z,23.80
2017-12-03T08:40:45.877Z,24.60
2017-12-03T08:43:14.201Z,26.07
2017-12-03T08:45:42.559Z,28.00
2017-12-03T08:48:11.653Z,54.27
2017-12-03T08:50:40.743Z,34.27
2017-12-03T08:53:09.855Z,30.60
2017-12-03T08:55:38.182Z,37.27
2017-12-03T08:58:06.512Z,26.07
2017-12-03T09:00:34.881Z,24.20
2017-12-03T09:03:03.971Z,24.97
2017-12-03T09:05:33.063Z,24.90
2017-12-03T09:08:02.167Z,23.37
2017-12-03T09:10:31.281Z,25.57
2017-12-03T09:12:59.607Z,22.87
2017-12-03T09:15:27.964Z,24.63
2017-12-03T09:17:56.309Z,24.63
2017-12-03T09:20:24.640Z,27.87
2017-12-03T09:22:52.996Z,24.80
2017-12-03T09:25:21.355Z,24.50
2017-12-03T09:27:49.726Z,25.23
2017-12-03T09:30:18.121Z,25.50
2017-12-03T09:32:46.920Z,27.13
2017-12-03T09:35:15.318Z,24.70
2017-12-03T09:37:43.708Z,23.27
2017-12-03T09:40:12.055Z,24.13
2017-12-03T09:42:40.370Z,23.23
2017-12-03T09:45:08.799Z,37.00
2017-12-03T09:47:37.140Z,21.53
2017-12-03T09:50:06.310Z,24.17
2017-12-03T09:52:34.629Z,22.07
2017-12-03T09:55:02.968Z,22.03
2017-12-03T09:57:31.327Z,21.10
2017-12-03T10:00:00.440Z,21.87
2017-12-03T10:02:29.188Z,22.53
2017-12-03T10:04:57.539Z,21.47
2017-12-03T10:07:26.658Z,24.93
2017-12-03T10:09:55.002Z,20.20
2017-12-03T10:12:24.924Z,21.37
2017-12-03T10:14:54.077Z,24.33
2017-12-03T10:17:22.412Z,19.67
2017-12-03T10:19:50.736Z,17.33
2017-12-03T10:22:19.132Z,19.80
2017-12-03T10:24:47.460Z,17.13
2017-12-03T10:27:15.799Z,17.23
2017-12-03T10:29:44.168Z,16.63
2017-12-03T10:32:12.500Z,15.90
2017-12-03T10:34:40.957Z,17.13
2017-12-03T10:37:10.068Z,15.83
2017-12-03T10:39:38.425Z,15.63
2017-12-03T10:42:07.506Z,14.60
2017-12-03T10:44:35.829Z,16.60
2017-12-03T10:47:04.174Z,13.87
2017-12-03T10:49:33.260Z,79.87
2017-12-03T10:52:02.381Z,13.80
2017-12-03T10:54:30.732Z,12.93
2017-12-03T10:56:59.052Z,13.10
2017-12-03T10:59:27.379Z,11.70
2017-12-03T11:01:55.736Z,12.10
2017-12-03T11:04:24.063Z,14.33
2017-12-03T11:06:53.152Z,14.53
2017-12-03T11:09:22.272Z,13.70
2017-12-03T11:11:50.625Z,12.67
2017-12-03T11:14:19.730Z,12.57
2017-12-03T11:16:48.059Z,11.13
2017-12-03T11:19:16.388Z,13.73
2017-12-03T11:21:44.723Z,16.20
2017-12-03T11:24:13.063Z,14.67
2017-12-03T11:26:41.376Z,14.37
2017-12-03T11:29:10.175Z,12.33
2017-12-03T11:31:38.700Z,13.03
2017-12-03T11:34:07.028Z,12.63
2017-12-03T11:36:35.397Z,15.97
2017-12-03T11:39:04.504Z,18.50
2017-12-03T11:41:32.833Z,10.70
2017-12-03T11:44:01.253Z,15.17
2017-12-03T11:46:29.596Z,12.03
2017-12-03T11:48:57.969Z,12.43
2017-12-03T11:51:26.288Z,16.40
2017-12-03T11:53:54.635Z,15.80
2017-12-03T11:56:22.983Z,12.20
2017-12-03T11:58:52.092Z,11.67
2017-12-03T12:01:21.178Z,13.33
2017-12-03T12:03:50.301Z,13.40
2017-12-03T12:06:18.624Z,15.20
2017-12-03T12:08:46.970Z,15.33
2017-12-03T12:11:15.316Z,12.50
2017-12-03T12:13:43.644Z,14.10
2017-12-03T12:16:11.971Z,13.90
2017-12-03T12:18:40.327Z,13.53
2017-12-03T12:21:09.403Z,15.37
2017-12-03T12:23:37.735Z,14.60
2017-12-03T12:26:06.080Z,15.97
2017-12-03T12:28:35.192Z,14.17
2017-12-03T12:31:03.569Z,19.37
2017-12-03T12:33:31.896Z,17.37
2017-12-03T12:36:00.221Z,18.90
2017-12-03T12:38:28.564Z,17.07
2017-12-03T12:40:56.887Z,17.30
2017-12-03T12:43:25.200Z,16.50
2017-12-03T12:45:53.549Z,17.90
2017-12-03T12:48:21.876Z,14.13
2017-12-03T12:50:50.244Z,15.10
2017-12-03T12:53:18.563Z,15.60
2017-12-03T12:55:47.642Z,13.90
2017-12-03T12:58:15.991Z,13.50
2017-12-03T13:00:44.484Z,14.83
2017-12-03T13:03:12.804Z,17.60
2017-12-03T13:05:41.165Z,15.37
2017-12-03T13:08:10.255Z,15.93
2017-12-03T13:10:39.603Z,14.20
2017-12-03T13:13:07.956Z,14.57
2017-12-03T13:15:36.529Z,16.37
2017-12-03T13:18:05.635Z,13.30
2017-12-03T13:20:33.968Z,14.87
2017-12-03T13:23:02.315Z,14.13
2017-12-03T13:25:30.653Z,12.57
2017-12-03T13:27:59.788Z,14.50
2017-12-03T13:30:28.117Z,15.20
2017-12-03T13:32:56.452Z,15.50
2017-12-03T13:35:24.821Z,14.83
2017-12-03T13:37:53.144Z,16.10
2017-12-03T13:40:21.465Z,15.23
2017-12-03T13:42:49.820Z,17.07
2017-12-03T13:45:18.157Z,17.20
2017-12-03T13:47:46.527Z,14.73
2017-12-03T13:50:14.855Z,17.23
2017-12-03T13:52:43.945Z,16.40
2017-12-03T13:55:12.340Z,16.77
2017-12-03T13:57:40.671Z,15.13
2017-12-03T14:00:08.993Z,14.70
2017-12-03T14:02:38.115Z,13.07
2017-12-03T14:05:06.439Z,14.90
2017-12-03T14:07:34.769Z,18.37
2017-12-03T14:10:03.124Z,13.03
2017-12-03T14:12:31.440Z,14.43
2017-12-03T14:14:59.757Z,13.20
2017-12-03T14:17:28.109Z,15.60
2017-12-03T14:19:56.451Z,16.73
2017-12-03T14:22:24.760Z,15.27
2017-12-03T14:24:53.120Z,18.37
2017-12-03T14:27:21.690Z,16.10
2017-12-03T14:29:50.052Z,13.13
2017-12-03T14:32:18.391Z,13.13
2017-12-03T14:34:46.740Z,11.30
2017-12-03T14:37:15.056Z,11.70
2017-12-03T14:39:43.385Z,13.20
2017-12-03T14:42:11.742Z,14.97
2017-12-03T14:44:40.866Z,15.70
2017-12-03T14:47:09.201Z,14.50
2017-12-03T14:49:38.311Z,14.50
2017-12-03T14:52:06.674Z,24.47
2017-12-03T14:54:35.758Z,14.67
2017-12-03T14:57:04.075Z,15.77
2017-12-03T14:59:32.436Z,13.50
2017-12-03T15:02:01.515Z,12.50
2017-12-03T15:04:29.835Z,13.60
2017-12-03T15:06:58.186Z,15.40
2017-12-03T15:09:27.263Z,13.10
2017-12-03T15:11:55.588Z,15.87
2017-12-03T15:14:24.785Z,12.70
2017-12-03T15:16:53.169Z,15.20
2017-12-03T15:19:22.207Z,14.70
2017-12-03T15:21:50.544Z,11.90
2017-12-03T15:24:18.883Z,14.93
2017-12-03T15:26:47.967Z,12.77
2017-12-03T15:29:17.080Z,13.17
2017-12-03T15:31:45.410Z,13.23
2017-12-03T15:34:13.763Z,11.67
2017-12-03T15:36:42.116Z,15.37
2017-12-03T15:39:10.913Z,17.13
2017-12-03T15:41:39.283Z,11.80
2017-12-03T15:44:07.599Z,11.10
2017-12-03T15:46:35.935Z,14.73
2017-12-03T15:49:04.284Z,12.40
2017-12-03T15:51:32.640Z,12.60
2017-12-03T15:54:00.963Z,11.97
2017-12-03T15:56:30.053Z,16.43
2017-12-03T15:58:59.152Z,13.70
2017-12-03T16:01:28.245Z,14.00
2017-12-03T16:03:57.356Z,13.17
2017-12-03T16:06:25.694Z,16.57
2017-12-03T16:08:54.037Z,14.87
2017-12-03T16:11:22.352Z,14.50
2017-12-03T16:13:50.695Z,14.00
2017-12-03T16:16:19.013Z,13.33
2017-12-03T16:18:47.360Z,18.67
2017-12-03T16:21:15.692Z,13.50
2017-12-03T16:23:44.769Z,12.60
2017-12-03T16:26:13.125Z,15.07
2017-12-03T16:28:41.451Z,13.50
2017-12-03T16:31:09.775Z,12.43
2017-12-03T16:33:38.128Z,11.40
2017-12-03T16:36:06.447Z,13.80
2017-12-03T16:38:34.836Z,17.30
2017-12-03T16:41:03.164Z,13.17
2017-12-03T16:43:31.495Z,13.97
2017-12-03T16:45:59.911Z,12.37
2017-12-03T16:48:28.263Z,12.83
2017-12-03T16:50:57.352Z,11.73
2017-12-03T16:53:26.439Z,11.97
2017-12-03T16:55:54.800Z,10.17
2017-12-03T16:58:23.139Z,10.07
2017-12-03T17:00:52.042Z,8.93
2017-12-03T17:03:20.374Z,9.90
2017-12-03T17:05:49.459Z,9.47
2017-12-03T17:08:17.795Z,10.30
2017-12-03T17:10:46.127Z,11.33
2017-12-03T17:13:15.291Z,9.93
2017-12-03T17:15:43.608Z,9.83
2017-12-03T17:18:12.689Z,9.83
2017-12-03T17:20:41.835Z,13.17
2017-12-03T17:23:10.147Z,10.60
2017-12-03T17:25:38.476Z,11.90
2017-12-03T17:28:06.814Z,11.50
2017-12-03T17:30:35.167Z,12.33
2017-12-03T17:33:03.519Z,14.57
2017-12-03T17:35:31.851Z,12.83
2017-12-03T17:38:00.179Z,12.87
2017-12-03T17:40:28.541Z,13.30
2017-12-03T17:42:56.860Z,16.43
2017-12-03T17:45:25.183Z,15.33
2017-12-03T17:47:54.295Z,14.90
2017-12-03T17:50:22.612Z,13.97
2017-12-03T17:52:50.960Z,15.20
2017-12-03T17:55:19.287Z,15.50
2017-12-03T17:57:47.608Z,14.97
2017-12-03T18:00:15.952Z,17.90
2017-12-03T18:02:45.039Z,14.83
2017-12-03T18:05:13.396Z,18.63
2017-12-03T18:07:41.725Z,15.50
2017-12-03T18:10:10.065Z,16.30
2017-12-03T18:12:38.431Z,15.07
2017-12-03T18:15:06.777Z,14.20
2017-12-03T18:17:35.099Z,18.17
2017-12-03T18:20:03.501Z,15.97
2017-12-03T18:22:31.796Z,19.20
2017-12-03T18:25:00.120Z,15.17
2017-12-03T18:27:28.477Z,16.90
2017-12-03T18:29:56.791Z,18.70
2017-12-03T18:32:25.131Z,17.27
2017-12-03T18:34:53.450Z,22.27
2017-12-03T18:37:21.802Z,20.30
2017-12-03T18:39:50.127Z,20.27
2017-12-03T18:42:19.237Z,17.33
2017-12-03T18:44:47.571Z,24.17
2017-12-03T18:47:15.895Z,25.83
2017-12-03T18:49:44.262Z,20.33
2017-12-03T18:52:12.624Z,21.40
2017-12-03T18:54:41.714Z,20.43
2017-12-03T18:57:10.809Z,21.10
2017-12-03T18:59:39.184Z,20.67
2017-12-03T19:02:08.284Z,26.80
2017-12-03T19:04:37.379Z,24.47
2017-12-03T19:07:05.710Z,27.63
2017-12-03T19:09:34.033Z,27.40
2017-12-03T19:12:02.384Z,26.47
2017-12-03T19:14:30.706Z,27.83
2017-12-03T19:16:59.797Z,28.43
2017-12-03T19:19:28.931Z,29.07
2017-12-03T19:21:57.248Z,28.80
2017-12-03T19:24:25.588Z,34.67
2017-12-03T19:26:53.907Z,27.47
2017-12-03T19:29:22.260Z,24.10
2017-12-03T19:31:50.587Z,27.57
2017-12-03T19:34:18.907Z,25.03
2017-12-03T19:36:47.246Z,26.03
2017-12-03T19:39:15.604Z,21.67
2017-12-03T19:41:43.932Z,23.30
2017-12-03T19:44:12.268Z,19.70
2017-12-03T19:46:41.379Z,15.07
2017-12-03T19:49:09.711Z,18.47
2017-12-03T19:51:38.065Z,17.80
2017-12-03T19:54:06.416Z,17.53
2017-12-03T19:56:34.765Z,19.40
2017-12-03T19:59:03.887Z,16.87
2017-12-03T20:01:32.216Z,22.47
2017-12-03T20:04:00.559Z,20.17
2017-12-03T20:06:28.899Z,21.83
2017-12-03T20:08:58.002Z,22.33
2017-12-03T20:11:27.096Z,27.63
2017-12-03T20:13:56.196Z,22.67
2017-12-03T20:16:25.281Z,19.60
2017-12-03T20:18:54.396Z,23.30
2017-12-03T20:21:22.724Z,26.40
2017-12-03T20:23:51.039Z,22.00
2017-12-03T20:26:20.161Z,22.67
2017-12-03T20:28:48.515Z,19.43
2017-12-03T20:31:17.624Z,19.93
2017-12-03T20:33:45.949Z,23.17
2017-12-03T20:36:14.354Z,24.87
2017-12-03T20:38:43.465Z,21.13
2017-12-03T20:41:12.548Z,36.00
2017-12-03T20:43:41.668Z,26.53
2017-12-03T20:46:10.005Z,25.13
2017-12-03T20:48:38.369Z,29.30
2017-12-03T20:51:07.459Z,31.67
2017-12-03T20:53:36.544Z,27.63
2017-12-03T20:56:04.888Z,31.23
2017-12-03T20:58:33.974Z,28.23
2017-12-03T21:01:03.099Z,26.67
2017-12-03T21:03:31.429Z,28.47
2017-12-03T21:06:00.533Z,25.83
2017-12-03T21:08:29.680Z,31.33
2017-12-03T21:10:58.003Z,28.17
2017-12-03T21:13:26.335Z,29.20
2017-12-03T21:15:54.675Z,27.70
2017-12-03T21:18:23.813Z,31.13
2017-12-03T21:20:52.875Z,32.17
2017-12-03T21:23:21.987Z,31.60
2017-12-03T21:25:50.339Z,39.83
2017-12-03T21:28:19.456Z,31.97
2017-12-03T21:30:47.768Z,32.93
2017-12-03T21:33:16.116Z,40.17
2017-12-03T21:35:44.431Z,40.00
2017-12-03T21:38:12.767Z,35.57
2017-12-03T21:40:41.112Z,34.90
2017-12-03T21:43:10.198Z,32.07
2017-12-03T21:45:38.557Z,37.30
2017-12-03T21:48:06.967Z,31.13
2017-12-03T21:50:35.306Z,34.80
2017-12-03T21:53:03.623Z,31.77
2017-12-03T21:55:32.755Z,35.53
2017-12-03T21:58:01.108Z,39.27
2017-12-03T22:00:30.217Z,36.27
2017-12-03T22:02:58.549Z,31.30
2017-12-03T22:05:26.909Z,35.80
2017-12-03T22:07:55.234Z,32.13
2017-12-03T22:10:24.359Z,35.73
2017-12-03T22:12:52.676Z,32.70
2017-12-03T22:15:21.012Z,40.90
2017-12-03T22:17:49.351Z,36.67
2017-12-03T22:20:17.672Z,38.47
2017-12-03T22:22:46.036Z,46.17
2017-12-03T22:25:14.384Z,42.27
2017-12-03T22:27:42.731Z,43.67
2017-12-03T22:30:11.068Z,39.30
2017-12-03T22:32:39.460Z,43.90
2017-12-03T22:35:07.816Z,37.77
2017-12-03T22:37:36.895Z,46.63
2017-12-03T22:40:06.724Z,35.33
2017-12-03T22:42:35.859Z,46.43
2017-12-03T22:45:04.197Z,46.53
2017-12-03T22:47:33.294Z,42.07
2017-12-03T22:50:02.395Z,43.80
2017-12-03T22:52:30.744Z,40.43
2017-12-03T22:54:59.064Z,43.93
2017-12-03T22:57:27.380Z,45.33
2017-12-03T22:59:55.730Z,46.53
2017-12-03T23:02:24.063Z,43.70
2017-12-03T23:04:53.142Z,42.10
2017-12-03T23:07:21.487Z,38.83
2017-12-03T23:09:49.836Z,48.20
2017-12-03T23:12:18.152Z,43.20
2017-12-03T23:14:46.471Z,52.43
2017-12-03T23:17:15.633Z,47.97
2017-12-03T23:19:43.948Z,40.73
2017-12-03T23:22:13.032Z,52.20
2017-12-03T23:24:41.403Z,48.07
2017-12-03T23:27:09.711Z,57.07
2017-12-03T23:29:38.843Z,46.87
2017-12-03T23:32:07.163Z,43.80
2017-12-03T23:34:35.503Z,44.70
2017-12-03T23:37:03.848Z,38.00
2017-12-03T23:39:32.216Z,36.87
2017-12-03T23:42:01.327Z,40.37
2017-12-03T23:44:29.683Z,34.40
2017-12-03T23:46:58.781Z,47.93
2017-12-03T23:49:27.895Z,40.90
2017-12-03T23:51:56.236Z,41.73
2017-12-03T23:54:24.551Z,44.70
2017-12-03T23:56:52.898Z,56.40
2017-12-03T23:59:21.247Z,50.60
